createdAt,value
2023-03-13T00:01:00.025Z,8.34
2023-03-13T00:03:27.740Z,8.48
2023-03-13T00:05:58.563Z,8.46
2023-03-13T00:08:26.236Z,8.42
2023-03-13T00:10:52.849Z,8.43
2023-03-13T00:13:19.398Z,8.41
2023-03-13T00:15:46.136Z,8.40
2023-03-13T00:18:13.090Z,8.36
2023-03-13T00:20:40.538Z,8.37
2023-03-13T00:23:07.183Z,8.44
2023-03-13T00:25:34.758Z,8.47
2023-03-13T00:28:01.868Z,8.40
2023-03-13T00:30:28.987Z,8.41
2023-03-13T00:32:55.665Z,8.45
2023-03-13T00:35:23.096Z,8.53
2023-03-13T00:37:49.737Z,8.46
2023-03-13T00:40:16.570Z,8.51
2023-03-13T00:42:43.100Z,8.47
2023-03-13T00:45:10.396Z,8.47
2023-03-13T00:47:37.331Z,8.53
2023-03-13T00:50:04.338Z,8.48
2023-03-13T00:52:30.962Z,8.55
2023-03-13T00:54:57.640Z,8.52
2023-03-13T00:57:24.247Z,8.54
2023-03-13T00:59:51.102Z,8.60
2023-03-13T01:02:17.912Z,8.67
2023-03-13T01:04:44.870Z,8.66
2023-03-13T01:07:11.494Z,8.68
2023-03-13T01:09:38.097Z,8.79
2023-03-13T01:12:05.055Z,8.79
2023-03-13T01:14:31.555Z,8.79
2023-03-13T01:16:58.157Z,8.78
2023-03-13T01:19:24.623Z,8.79
2023-03-13T01:21:51.288Z,8.78
2023-03-13T01:24:20.105Z,8.73
2023-03-13T01:26:47.094Z,8.74
2023-03-13T01:29:14.291Z,8.77
2023-03-13T01:31:40.872Z,8.81
2023-03-13T01:34:08.093Z,8.82
2023-03-13T01:36:36.518Z,8.83
2023-03-13T01:39:03.504Z,8.79
2023-03-13T01:41:30.824Z,8.75
2023-03-13T01:43:57.928Z,8.70
2023-03-13T01:46:27.586Z,8.75
2023-03-13T01:48:55.860Z,8.86
2023-03-13T01:51:38.575Z,8.77
2023-03-13T01:54:20.513Z,8.73
2023-03-13T01:56:57.273Z,8.72
2023-03-13T01:59:37.405Z,8.69
2023-03-13T02:02:05.043Z,8.62
2023-03-13T02:04:37.818Z,8.59
2023-03-13T02:07:14.981Z,8.47
2023-03-13T02:09:43.936Z,8.44
2023-03-13T02:12:13.526Z,8.36
2023-03-13T02:14:43.232Z,8.31
2023-03-13T02:17:10.023Z,8.29
2023-03-13T02:19:48.309Z,8.28
2023-03-13T02:22:36.473Z,8.31
2023-03-13T02:25:26.939Z,8.27
2023-03-13T02:28:21.333Z,8.16
2023-03-13T02:30:50.223Z,8.19
2023-03-13T02:33:18.701Z,8.00
2023-03-13T02:35:46.037Z,7.97
2023-03-13T02:38:16.852Z,8.00
2023-03-13T02:40:46.610Z,8.01
2023-03-13T02:43:19.665Z,8.19
2023-03-13T02:46:06.227Z,8.27
2023-03-13T02:48:53.549Z,8.48
2023-03-13T02:51:24.265Z,8.50
2023-03-13T02:53:52.756Z,8.66
2023-03-13T02:56:22.943Z,8.68
2023-03-13T02:58:50.668Z,8.77
2023-03-13T03:01:17.370Z,8.80
2023-03-13T03:03:44.320Z,8.94
2023-03-13T03:06:10.976Z,8.95
2023-03-13T03:08:41.416Z,8.99
2023-03-13T03:11:08.358Z,9.01
2023-03-13T03:13:34.911Z,9.03
2023-03-13T03:16:09.277Z,9.06
2023-03-13T03:18:36.839Z,9.09
2023-03-13T03:21:06.282Z,9.06
2023-03-13T03:23:33.874Z,9.11
2023-03-13T03:26:01.134Z,9.16
2023-03-13T03:28:27.920Z,9.05
2023-03-13T03:30:55.686Z,9.09
2023-03-13T03:33:22.935Z,9.06
2023-03-13T03:35:50.567Z,9.01
2023-03-13T03:38:17.289Z,8.96
2023-03-13T03:40:43.920Z,8.92
2023-03-13T03:43:10.375Z,8.93
2023-03-13T03:45:37.011Z,9.00
2023-03-13T03:48:03.664Z,9.14
2023-03-13T03:50:30.101Z,9.01
2023-03-13T03:52:56.595Z,9.02
2023-03-13T03:55:23.146Z,9.04
2023-03-13T03:57:49.814Z,9.00
2023-03-13T04:00:16.558Z,8.96
2023-03-13T04:02:43.309Z,8.93
2023-03-13T04:05:10.106Z,8.97
2023-03-13T04:07:37.080Z,8.94
2023-03-13T04:10:04.527Z,9.07
2023-03-13T04:12:31.148Z,9.05
2023-03-13T04:14:57.648Z,9.11
2023-03-13T04:17:24.301Z,9.02
2023-03-13T04:19:50.729Z,9.03
2023-03-13T04:22:17.208Z,8.98
2023-03-13T04:24:44.066Z,9.06
2023-03-13T04:27:10.507Z,9.05
2023-03-13T04:29:36.915Z,9.06
2023-03-13T04:32:03.752Z,8.96
2023-03-13T04:34:30.413Z,9.01
2023-03-13T04:36:57.005Z,9.05
2023-03-13T04:39:25.360Z,8.97
2023-03-13T04:41:55.761Z,9.01
2023-03-13T04:44:23.117Z,8.98
2023-03-13T04:46:49.790Z,8.95
2023-03-13T04:49:16.612Z,8.99
2023-03-13T04:51:43.810Z,9.00
2023-03-13T04:54:10.699Z,9.06
2023-03-13T04:56:43.539Z,9.02
2023-03-13T04:59:14.380Z,9.00
2023-03-13T05:01:41.438Z,9.21
2023-03-13T05:04:08.768Z,9.18
2023-03-13T05:06:35.379Z,9.15
2023-03-13T05:09:03.357Z,9.13
2023-03-13T05:11:30.947Z,9.18
2023-03-13T05:13:57.426Z,9.20
2023-03-13T05:16:24.469Z,9.19
2023-03-13T05:18:51.142Z,9.26
2023-03-13T05:21:18.421Z,9.28
2023-03-13T05:23:45.344Z,9.30
2023-03-13T05:26:11.910Z,9.27
2023-03-13T05:28:38.761Z,9.40
2023-03-13T05:31:05.432Z,9.32
2023-03-13T05:33:32.042Z,9.41
2023-03-13T05:35:58.645Z,9.49
2023-03-13T05:38:25.528Z,9.56
2023-03-13T05:40:52.001Z,9.56
2023-03-13T05:43:18.493Z,9.63
2023-03-13T05:45:46.189Z,9.68
2023-03-13T05:48:13.268Z,9.62
2023-03-13T05:50:39.910Z,9.51
2023-03-13T05:53:06.466Z,9.46
2023-03-13T05:55:33.037Z,9.41
2023-03-13T05:57:59.558Z,9.39
2023-03-13T06:00:27.062Z,9.44
2023-03-13T06:02:53.516Z,9.29
2023-03-13T06:05:20.001Z,9.34
2023-03-13T06:07:46.624Z,9.37
2023-03-13T06:10:13.101Z,9.31
2023-03-13T06:12:40.202Z,9.40
2023-03-13T06:15:07.582Z,9.31
2023-03-13T06:17:34.233Z,9.37
2023-03-13T06:20:00.720Z,9.25
2023-03-13T06:22:27.520Z,9.33
2023-03-13T06:24:53.987Z,9.36
2023-03-13T06:27:20.506Z,9.27
2023-03-13T06:29:47.069Z,9.27
2023-03-13T06:32:13.693Z,9.28
2023-03-13T06:34:40.340Z,9.29
2023-03-13T06:37:07.003Z,9.35
2023-03-13T06:39:34.051Z,9.51
2023-03-13T06:42:00.591Z,9.48
2023-03-13T06:44:27.187Z,9.48
2023-03-13T06:46:53.842Z,9.58
2023-03-13T06:49:20.460Z,9.53
2023-03-13T06:51:46.948Z,9.57
2023-03-13T06:54:13.496Z,9.57
2023-03-13T06:56:40.061Z,9.58
2023-03-13T06:59:06.463Z,9.59
2023-03-13T07:01:33.498Z,9.68
2023-03-13T07:04:00.152Z,9.62
2023-03-13T07:06:27.077Z,9.73
2023-03-13T07:08:54.102Z,9.74
2023-03-13T07:11:20.576Z,9.83
2023-03-13T07:13:46.975Z,9.89
2023-03-13T07:16:14.178Z,9.85
2023-03-13T07:18:44.787Z,9.89
2023-03-13T07:21:12.402Z,9.95
2023-03-13T07:23:38.968Z,10.10
2023-03-13T07:26:07.901Z,10.23
2023-03-13T07:28:37.571Z,10.22
2023-03-13T07:31:15.709Z,10.19
2023-03-13T07:33:42.810Z,10.10
2023-03-13T07:36:09.967Z,10.00
2023-03-13T07:38:36.901Z,9.88
2023-03-13T07:41:04.150Z,9.75
2023-03-13T07:43:31.543Z,9.54
2023-03-13T07:46:04.873Z,9.43
2023-03-13T07:48:33.864Z,9.42
2023-03-13T07:51:00.957Z,9.38
2023-03-13T07:53:28.444Z,9.52
2023-03-13T07:56:00.582Z,9.45
2023-03-13T07:58:29.819Z,9.38
2023-03-13T08:00:57.048Z,9.40
2023-03-13T08:03:24.209Z,9.43
2023-03-13T08:06:15.207Z,9.50
2023-03-13T08:08:41.681Z,9.55
2023-03-13T08:11:13.414Z,9.54
2023-03-13T08:13:41.295Z,9.50
2023-03-13T08:16:14.869Z,9.46
2023-03-13T08:18:46.296Z,9.42
2023-03-13T08:21:19.190Z,9.42
2023-03-13T08:23:45.851Z,9.45
2023-03-13T08:26:14.669Z,9.43
2023-03-13T08:28:41.892Z,9.36
2023-03-13T08:31:17.055Z,9.39
2023-03-13T08:33:45.112Z,9.38
2023-03-13T08:36:26.417Z,9.44
2023-03-13T08:38:54.570Z,9.41
2023-03-13T08:41:23.328Z,9.46
2023-03-13T08:43:52.777Z,9.48
2023-03-13T08:46:19.931Z,9.59
2023-03-13T08:48:54.315Z,9.51
2023-03-13T08:51:23.705Z,9.63
2023-03-13T08:53:50.967Z,9.65
2023-03-13T08:56:19.454Z,9.66
2023-03-13T08:58:50.727Z,9.83
2023-03-13T09:01:17.756Z,9.89
2023-03-13T09:03:44.436Z,9.84
2023-03-13T09:06:11.406Z,9.96
2023-03-13T09:08:39.126Z,10.06
2023-03-13T09:11:14.210Z,10.17
2023-03-13T09:13:44.875Z,10.24
2023-03-13T09:16:17.164Z,10.29
2023-03-13T09:18:43.794Z,10.22
2023-03-13T09:21:14.131Z,10.35
2023-03-13T09:23:40.990Z,10.34
2023-03-13T09:26:07.554Z,10.37
2023-03-13T09:28:34.597Z,10.36
2023-03-13T09:31:09.035Z,10.27
2023-03-13T09:33:36.029Z,10.16
2023-03-13T09:36:02.983Z,10.11
2023-03-13T09:38:29.588Z,10.09
2023-03-13T09:41:06.222Z,9.95
2023-03-13T09:43:33.079Z,9.89
2023-03-13T09:46:02.693Z,9.85
2023-03-13T09:48:34.554Z,9.79
2023-03-13T09:51:36.467Z,9.89
2023-03-13T09:54:06.485Z,9.88
2023-03-13T09:56:50.438Z,9.90
2023-03-13T09:59:22.006Z,9.92
2023-03-13T10:01:49.448Z,9.99
2023-03-13T10:04:36.188Z,10.23
2023-03-13T10:07:02.823Z,10.37
2023-03-13T10:09:32.112Z,10.51
2023-03-13T10:12:20.737Z,10.64
2023-03-13T10:14:54.590Z,10.66
2023-03-13T10:17:32.625Z,10.82
2023-03-13T10:20:23.619Z,10.79
2023-03-13T10:23:00.698Z,10.91
2023-03-13T10:25:39.007Z,11.01
2023-03-13T10:28:08.840Z,11.01
2023-03-13T10:30:38.704Z,11.13
2023-03-13T10:33:08.395Z,11.12
2023-03-13T10:35:38.014Z,11.27
2023-03-13T10:38:11.739Z,11.38
2023-03-13T10:40:39.584Z,11.54
2023-03-13T10:43:21.295Z,11.60
2023-03-13T10:45:48.848Z,11.71
2023-03-13T10:48:19.492Z,11.84
2023-03-13T10:50:49.227Z,11.90
2023-03-13T10:53:32.908Z,11.88
2023-03-13T10:56:17.645Z,12.08
2023-03-13T10:58:52.190Z,12.20
2023-03-13T11:01:28.893Z,12.46
2023-03-13T11:03:57.305Z,12.57
2023-03-13T11:06:31.210Z,12.67
2023-03-13T11:09:03.922Z,12.87
2023-03-13T11:11:31.222Z,12.94
2023-03-13T11:14:18.775Z,13.07
2023-03-13T11:16:51.569Z,13.19
2023-03-13T11:19:24.225Z,13.26
2023-03-13T11:22:02.567Z,13.26
2023-03-13T11:24:40.336Z,13.32
2023-03-13T11:27:48.778Z,13.32
2023-03-13T11:30:22.786Z,13.36
2023-03-13T11:32:54.178Z,13.35
2023-03-13T11:35:35.734Z,13.40
2023-03-13T11:38:08.414Z,13.33
2023-03-13T11:40:50.231Z,13.29
2023-03-13T11:43:26.612Z,13.33
2023-03-13T11:46:04.467Z,13.36
2023-03-13T11:48:40.063Z,13.34
2023-03-13T11:51:12.815Z,13.34
2023-03-13T11:54:20.112Z,13.31
2023-03-13T11:56:56.775Z,13.43
2023-03-13T11:59:29.390Z,13.39
2023-03-13T12:02:00.860Z,13.38
2023-03-13T12:05:01.286Z,13.46
2023-03-13T12:07:32.298Z,13.38
2023-03-13T12:10:23.656Z,13.42
2023-03-13T12:12:59.397Z,13.48
2023-03-13T12:15:29.640Z,13.48
2023-03-13T12:18:20.618Z,13.50
2023-03-13T12:21:12.222Z,13.57
2023-03-13T12:23:38.809Z,13.57
2023-03-13T12:26:19.482Z,13.79
2023-03-13T12:28:55.029Z,13.99
2023-03-13T12:31:29.497Z,14.34
2023-03-13T12:34:03.743Z,14.66
2023-03-13T12:36:41.625Z,14.84
2023-03-13T12:39:22.768Z,15.10
2023-03-13T12:42:27.051Z,15.23
2023-03-13T12:44:54.230Z,15.14
2023-03-13T12:47:27.953Z,15.09
2023-03-13T12:50:19.380Z,14.93
2023-03-13T12:52:45.802Z,15.00
2023-03-13T12:55:24.074Z,15.01
2023-03-13T12:58:06.553Z,15.14
2023-03-13T13:00:35.827Z,15.32
2023-03-13T13:03:17.395Z,15.34
2023-03-13T13:06:06.010Z,15.53
2023-03-13T13:08:37.712Z,15.46
2023-03-13T13:11:38.695Z,15.59
2023-03-13T13:14:28.502Z,16.23
2023-03-13T13:17:00.381Z,16.33
2023-03-13T13:19:26.855Z,16.43
2023-03-13T13:22:33.420Z,16.45
2023-03-13T13:25:00.960Z,16.90
2023-03-13T13:27:36.537Z,16.84
2023-03-13T13:30:17.405Z,16.81
2023-03-13T13:32:50.197Z,16.67
2023-03-13T13:35:28.836Z,16.91
2023-03-13T13:38:20.206Z,17.03
2023-03-13T13:41:10.063Z,17.17
2023-03-13T13:43:43.182Z,16.72
2023-03-13T13:46:33.509Z,16.42
2023-03-13T13:49:06.699Z,16.40
2023-03-13T13:51:43.605Z,16.31
2023-03-13T13:54:19.153Z,16.13
2023-03-13T13:56:50.118Z,16.12
2023-03-13T13:59:24.802Z,15.96
2023-03-13T14:02:21.666Z,15.81
2023-03-13T14:05:15.530Z,15.82
2023-03-13T14:08:00.361Z,15.81
2023-03-13T14:10:43.669Z,15.82
2023-03-13T14:13:19.472Z,15.84
2023-03-13T14:15:53.251Z,15.91
2023-03-13T14:18:28.300Z,16.13
2023-03-13T14:20:57.232Z,16.31
2023-03-13T14:23:44.112Z,16.39
2023-03-13T14:26:24.263Z,16.34
2023-03-13T14:28:53.978Z,16.39
2023-03-13T14:31:22.926Z,16.16
2023-03-13T14:33:50.079Z,16.05
2023-03-13T14:36:16.557Z,16.04
2023-03-13T14:38:52.954Z,16.03
2023-03-13T14:41:43.195Z,16.05
2023-03-13T14:44:24.978Z,16.19
2023-03-13T14:46:59.439Z,16.28
2023-03-13T14:49:31.680Z,16.24
2023-03-13T14:52:01.417Z,16.29
2023-03-13T14:54:36.649Z,16.24
2023-03-13T14:57:04.407Z,16.26
2023-03-13T14:59:31.058Z,16.24
2023-03-13T15:02:04.517Z,16.31
2023-03-13T15:04:50.056Z,16.16
2023-03-13T15:07:17.137Z,16.27
2023-03-13T15:09:45.865Z,16.16
2023-03-13T15:12:18.925Z,16.17
2023-03-13T15:14:47.704Z,16.17
2023-03-13T15:17:15.049Z,16.12
2023-03-13T15:19:42.543Z,16.11
2023-03-13T15:22:16.487Z,16.05
2023-03-13T15:24:48.458Z,16.01
2023-03-13T15:27:22.091Z,16.02
2023-03-13T15:29:49.538Z,16.04
2023-03-13T15:32:21.986Z,16.07
2023-03-13T15:34:48.461Z,15.95
2023-03-13T15:37:15.638Z,16.06
2023-03-13T15:39:42.304Z,16.20
2023-03-13T15:42:08.830Z,16.20
2023-03-13T15:44:35.610Z,16.19
2023-03-13T15:47:02.237Z,16.28
2023-03-13T15:49:28.721Z,16.40
2023-03-13T15:51:57.708Z,16.32
2023-03-13T15:54:26.501Z,16.40
2023-03-13T15:56:53.228Z,16.35
2023-03-13T15:59:19.756Z,16.30
2023-03-13T16:01:46.267Z,16.36
2023-03-13T16:04:30.402Z,16.34
2023-03-13T16:06:58.456Z,16.34
2023-03-13T16:09:25.075Z,16.38
2023-03-13T16:11:51.618Z,16.40
2023-03-13T16:14:18.076Z,16.45
2023-03-13T16:16:44.786Z,16.43
2023-03-13T16:19:12.330Z,16.43
2023-03-13T16:21:43.085Z,16.34
2023-03-13T16:24:09.576Z,16.25
2023-03-13T16:26:36.056Z,16.13
2023-03-13T16:29:02.924Z,16.09
2023-03-13T16:31:31.478Z,15.99
2023-03-13T16:33:58.980Z,15.93
2023-03-13T16:36:31.326Z,15.85
2023-03-13T16:38:59.898Z,15.82
2023-03-13T16:41:27.825Z,15.80
2023-03-13T16:43:55.046Z,15.82
2023-03-13T16:46:28.553Z,15.79
2023-03-13T16:48:58.351Z,15.79
2023-03-13T16:51:26.148Z,15.77
2023-03-13T16:53:54.402Z,15.65
2023-03-13T16:56:30.496Z,15.62
2023-03-13T16:58:57.336Z,15.51
2023-03-13T17:01:29.904Z,15.42
2023-03-13T17:03:57.840Z,15.37
2023-03-13T17:06:28.018Z,15.39
2023-03-13T17:08:55.696Z,15.22
2023-03-13T17:11:22.656Z,15.13
2023-03-13T17:13:50.715Z,15.29
2023-03-13T17:16:23.274Z,15.33
2023-03-13T17:18:51.729Z,15.32
2023-03-13T17:21:27.088Z,15.29
2023-03-13T17:23:53.687Z,15.32
2023-03-13T17:26:25.955Z,15.27
2023-03-13T17:28:55.052Z,15.21
2023-03-13T17:31:23.654Z,15.16
2023-03-13T17:33:50.623Z,15.03
2023-03-13T17:36:18.683Z,15.07
2023-03-13T17:38:46.100Z,15.12
2023-03-13T17:41:14.691Z,15.06
2023-03-13T17:43:41.729Z,14.88
2023-03-13T17:46:15.168Z,14.70
2023-03-13T17:48:41.810Z,14.42
2023-03-13T17:51:16.958Z,14.33
2023-03-13T17:53:44.284Z,14.31
2023-03-13T17:56:24.813Z,14.22
2023-03-13T17:58:54.366Z,14.18
2023-03-13T18:01:22.257Z,14.05
2023-03-13T18:03:49.525Z,14.03
2023-03-13T18:06:19.566Z,14.03
2023-03-13T18:08:47.275Z,13.97
2023-03-13T18:11:15.383Z,13.97
2023-03-13T18:13:41.992Z,14.02
2023-03-13T18:16:28.248Z,14.00
2023-03-13T18:18:54.902Z,14.05
2023-03-13T18:21:24.322Z,14.12
2023-03-13T18:23:52.143Z,14.15
2023-03-13T18:26:33.597Z,14.17
2023-03-13T18:29:01.373Z,14.19
2023-03-13T18:31:30.046Z,14.33
2023-03-13T18:33:58.616Z,14.34
2023-03-13T18:36:25.565Z,14.40
2023-03-13T18:38:52.786Z,14.42
2023-03-13T18:41:19.850Z,14.40
2023-03-13T18:43:46.783Z,14.43
2023-03-13T18:46:20.611Z,14.42
2023-03-13T18:48:49.036Z,14.30
2023-03-13T18:51:17.358Z,14.23
2023-03-13T18:53:44.806Z,14.22
2023-03-13T18:56:20.790Z,14.14
2023-03-13T18:58:50.367Z,14.08
2023-03-13T19:01:20.187Z,14.08
2023-03-13T19:03:47.692Z,13.93
2023-03-13T19:06:27.518Z,14.00
2023-03-13T19:08:57.541Z,13.98
2023-03-13T19:11:27.028Z,13.99
2023-03-13T19:13:53.908Z,13.99
2023-03-13T19:16:35.058Z,14.04
2023-03-13T19:19:01.958Z,14.03
2023-03-13T19:21:30.406Z,14.11
2023-03-13T19:23:57.521Z,14.08
2023-03-13T19:26:31.644Z,13.91
2023-03-13T19:28:59.056Z,13.68
2023-03-13T19:31:26.217Z,13.09
2023-03-13T19:33:55.664Z,12.48
2023-03-13T19:36:23.450Z,12.11
2023-03-13T19:38:50.391Z,11.91
2023-03-13T19:41:18.015Z,11.67
2023-03-13T19:43:45.546Z,11.50
2023-03-13T19:46:28.107Z,11.40
2023-03-13T19:48:57.066Z,11.34
2023-03-13T19:51:24.492Z,11.39
2023-03-13T19:53:51.989Z,11.44
2023-03-13T19:56:22.228Z,11.36
2023-03-13T19:58:50.957Z,11.39
2023-03-13T20:01:18.339Z,11.34
2023-03-13T20:03:45.916Z,11.35
2023-03-13T20:06:21.484Z,11.35
2023-03-13T20:08:48.380Z,11.22
2023-03-13T20:11:15.824Z,11.24
2023-03-13T20:13:42.667Z,11.29
2023-03-13T20:16:12.672Z,11.31
2023-03-13T20:18:40.458Z,11.32
2023-03-13T20:21:07.589Z,11.35
2023-03-13T20:23:34.117Z,11.31
2023-03-13T20:26:08.393Z,11.35
2023-03-13T20:28:42.192Z,11.38
2023-03-13T20:31:09.330Z,11.29
2023-03-13T20:33:36.450Z,11.29
2023-03-13T20:36:09.292Z,11.24
2023-03-13T20:38:37.208Z,11.20
2023-03-13T20:41:04.671Z,11.19
2023-03-13T20:43:32.280Z,11.14
2023-03-13T20:46:01.753Z,11.03
2023-03-13T20:48:29.234Z,10.94
2023-03-13T20:50:58.305Z,10.97
2023-03-13T20:53:25.966Z,10.93
2023-03-13T20:55:54.477Z,10.92
2023-03-13T20:58:21.225Z,10.87
2023-03-13T21:00:48.372Z,10.83
2023-03-13T21:03:15.272Z,10.85
2023-03-13T21:05:42.372Z,10.78
2023-03-13T21:08:09.451Z,10.80
2023-03-13T21:10:39.557Z,10.77
2023-03-13T21:13:06.666Z,10.78
2023-03-13T21:15:33.652Z,10.76
2023-03-13T21:18:00.529Z,10.76
2023-03-13T21:20:27.997Z,10.73
2023-03-13T21:22:55.131Z,10.67
2023-03-13T21:25:21.997Z,10.71
2023-03-13T21:27:48.741Z,10.69
2023-03-13T21:30:18.140Z,10.77
2023-03-13T21:32:45.461Z,10.71
2023-03-13T21:35:12.720Z,10.69
2023-03-13T21:37:39.898Z,10.62
2023-03-13T21:40:08.796Z,10.63
2023-03-13T21:42:36.160Z,10.70
2023-03-13T21:45:04.283Z,10.67
2023-03-13T21:47:36.550Z,10.67
2023-03-13T21:50:05.783Z,10.60
2023-03-13T21:52:34.404Z,10.62
2023-03-13T21:55:03.489Z,10.59
2023-03-13T21:57:29.996Z,10.71
2023-03-13T21:59:56.553Z,10.72
2023-03-13T22:02:23.172Z,10.80
2023-03-13T22:04:49.872Z,10.88
2023-03-13T22:07:16.436Z,10.94
2023-03-13T22:09:42.973Z,10.89
2023-03-13T22:12:09.659Z,10.86
2023-03-13T22:14:36.393Z,10.86
2023-03-13T22:17:03.231Z,10.86
2023-03-13T22:19:29.841Z,10.91
2023-03-13T22:21:56.394Z,10.92
2023-03-13T22:24:23.216Z,10.97
2023-03-13T22:26:49.796Z,10.87
2023-03-13T22:29:16.391Z,10.89
2023-03-13T22:31:42.937Z,10.77
2023-03-13T22:34:09.489Z,10.81
2023-03-13T22:36:37.795Z,10.79
2023-03-13T22:39:04.499Z,10.73
2023-03-13T22:41:30.993Z,10.77
2023-03-13T22:43:57.471Z,10.69
2023-03-13T22:46:24.475Z,10.66
2023-03-13T22:48:51.079Z,10.68
2023-03-13T22:51:17.619Z,10.69
2023-03-13T22:53:44.143Z,10.79
2023-03-13T22:56:11.966Z,10.78
2023-03-13T22:58:39.446Z,10.74
2023-03-13T23:01:12.404Z,10.81
2023-03-13T23:03:39.492Z,10.84
2023-03-13T23:06:07.994Z,10.75
2023-03-13T23:08:35.257Z,10.76
2023-03-13T23:11:03.346Z,10.71
2023-03-13T23:13:30.498Z,10.71
2023-03-13T23:15:57.677Z,10.66
2023-03-13T23:18:25.548Z,10.58
2023-03-13T23:20:52.346Z,10.58
2023-03-13T23:23:19.023Z,10.57
2023-03-13T23:25:45.691Z,10.56
2023-03-13T23:28:12.321Z,10.56
2023-03-13T23:30:38.976Z,10.50
2023-03-13T23:33:05.865Z,10.58
2023-03-13T23:35:32.662Z,10.56
2023-03-13T23:37:59.273Z,10.54
2023-03-13T23:40:25.772Z,10.50
2023-03-13T23:42:52.736Z,10.50
2023-03-13T23:45:19.271Z,10.52
2023-03-13T23:47:46.232Z,10.57
2023-03-13T23:50:15.373Z,10.55
2023-03-13T23:52:42.156Z,10.55
2023-03-13T23:55:09.913Z,10.57
2023-03-13T23:57:39.873Z,10.63
